createdAt,value
2022-10-28T00:00:08.014Z,1017.18
2022-10-28T00:05:08.235Z,1017.18
2022-10-28T00:10:07.932Z,1017.18
2022-10-28T00:15:08.655Z,1017.15
2022-10-28T00:20:08.408Z,1017.2
2022-10-28T00:25:08.110Z,1017.25
2022-10-28T00:30:07.833Z,1017.23
2022-10-28T00:35:08.542Z,1017.17
2022-10-28T00:40:08.215Z,1017.2
2022-10-28T00:45:07.893Z,1017.26
2022-10-28T00:50:08.608Z,1017.2
2022-10-28T00:55:08.301Z,1017.16
2022-10-28T01:00:08.029Z,1017.2
2022-10-28T01:05:07.742Z,1017.17
2022-10-28T01:10:08.447Z,1017.05
2022-10-28T01:15:08.150Z,1017.07
2022-10-28T01:20:07.883Z,1017.02
2022-10-28T01:25:08.613Z,1016.93
2022-10-28T01:30:08.280Z,1016.79
2022-10-28T01:35:14.578Z,1016.85
2022-10-28T01:40:08.306Z,1016.67
2022-10-28T01:45:07.995Z,1016.6
2022-10-28T01:50:07.801Z,1016.51
2022-10-28T01:55:08.501Z,1016.58
2022-10-28T02:00:08.191Z,1016.56
2022-10-28T02:05:07.898Z,1016.51
2022-10-28T02:10:08.678Z,1016.53
2022-10-28T02:20:08.137Z,1016.47
2022-10-28T02:25:17.816Z,1016.41
2022-10-28T02:30:08.491Z,1016.53
2022-10-28T02:35:08.323Z,1016.47
2022-10-28T02:40:08.034Z,1016.41
2022-10-28T02:45:07.748Z,1016.54
2022-10-28T02:50:08.453Z,1016.49
2022-10-28T02:55:08.174Z,1016.43
2022-10-28T03:00:07.893Z,1016.37
2022-10-28T03:05:08.737Z,1016.29
2022-10-28T03:10:08.649Z,1016.34
2022-10-28T03:15:08.511Z,1016.34
2022-10-28T03:20:10.241Z,1016.32
2022-10-28T03:25:07.933Z,1016.23
2022-10-28T03:30:08.676Z,1016.16
2022-10-28T03:35:08.674Z,1016.2
2022-10-28T03:40:08.473Z,1016.14
2022-10-28T03:45:08.154Z,1016.06
2022-10-28T03:50:08.219Z,1016.12
2022-10-28T03:55:08.149Z,1016.04
2022-10-28T04:00:07.843Z,1016.01
2022-10-28T04:05:03.258Z,1016.06
2022-10-28T04:10:02.387Z,1016.13
2022-10-28T04:15:02.333Z,1016.12
2022-10-28T04:20:02.105Z,1016.07
2022-10-28T04:25:02.245Z,1016.08
2022-10-28T04:30:01.913Z,1016.15
2022-10-28T04:35:02.702Z,1016.23
2022-10-28T04:40:02.547Z,1016.22
2022-10-28T04:45:02.409Z,1016.16
2022-10-28T04:50:02.513Z,1016.26
2022-10-28T04:55:02.969Z,1016.01
2022-10-28T05:00:01.820Z,1016.05
2022-10-28T05:05:02.631Z,1016.12
2022-10-28T05:10:02.457Z,1016.17
2022-10-28T05:15:02.898Z,1016.28
2022-10-28T05:20:02.724Z,1016.29
2022-10-28T05:25:02.661Z,1016.21
2022-10-28T05:30:02.623Z,1016.21
2022-10-28T05:35:02.606Z,1016.21
2022-10-28T05:40:02.546Z,1016.14
2022-10-28T05:45:04.355Z,1016.15
2022-10-28T05:50:02.509Z,1016.06
2022-10-28T05:55:02.640Z,1015.98
2022-10-28T06:00:03.071Z,1016.03
2022-10-28T06:05:02.021Z,1016.02
2022-10-28T06:10:03.337Z,1016.08
2022-10-28T06:15:00.709Z,1016.02
2022-10-28T06:20:00.557Z,1016.19
2022-10-28T06:25:00.452Z,1016.12
2022-10-28T06:30:00.238Z,1016.2
2022-10-28T06:35:01.099Z,1016.17
2022-10-28T06:40:00.945Z,1016.18
2022-10-28T06:45:00.860Z,1016.17
2022-10-28T06:50:02.283Z,1016.25
2022-10-28T06:55:02.036Z,1016.26
2022-10-28T07:00:02.371Z,1016.24
2022-10-28T07:05:02.267Z,1016.24
2022-10-28T07:10:02.362Z,1016.44
2022-10-28T07:15:02.238Z,1016.46
2022-10-28T07:20:02.078Z,1016.48
2022-10-28T07:25:02.018Z,1016.51
2022-10-28T07:30:01.837Z,1016.55
2022-10-28T07:35:02.884Z,1016.52
2022-10-28T07:40:02.702Z,1016.45
2022-10-28T07:45:02.898Z,1016.41
2022-10-28T07:50:03.086Z,1016.45
2022-10-28T07:55:01.841Z,1016.43
2022-10-28T08:00:02.730Z,1016.41
2022-10-28T08:05:02.581Z,1016.49
2022-10-28T08:10:02.600Z,1016.45
2022-10-28T08:15:02.886Z,1016.36
2022-10-28T08:20:02.943Z,1016.57
2022-10-28T08:25:03.065Z,1016.61
2022-10-28T08:30:02.189Z,1016.66
2022-10-28T08:35:02.074Z,1016.69
2022-10-28T08:40:02.063Z,1016.48
2022-10-28T08:45:02.581Z,1016.49
2022-10-28T08:50:02.713Z,1016.35
2022-10-28T08:55:02.708Z,1016.33
2022-10-28T09:00:02.678Z,1016.31
2022-10-28T09:05:02.721Z,1016.33
2022-10-28T09:10:02.565Z,1016.45
2022-10-28T09:15:02.696Z,1016.5
2022-10-28T09:20:02.659Z,1016.4
2022-10-28T09:25:02.509Z,1016.39
2022-10-28T09:30:12.391Z,1016.41
2022-10-28T09:35:02.514Z,1016.34
2022-10-28T09:40:02.438Z,1016.46
2022-10-28T09:45:02.431Z,1016.53
2022-10-28T09:50:02.341Z,1016.47
2022-10-28T09:55:02.283Z,1016.51
2022-10-28T10:00:02.179Z,1016.57
2022-10-28T10:05:02.044Z,1016.62
2022-10-28T10:10:01.985Z,1016.57
2022-10-28T10:15:02.017Z,1016.56
2022-10-28T10:20:02.037Z,1016.54
2022-10-28T10:25:01.933Z,1016.53
2022-10-28T10:30:02.920Z,1016.54
2022-10-28T10:35:02.959Z,1016.56
2022-10-28T10:40:10.592Z,1016.57
2022-10-28T10:45:12.453Z,1016.5
2022-10-28T10:50:02.450Z,1016.44
2022-10-28T10:55:02.510Z,1016.47
2022-10-28T11:00:02.514Z,1016.5
2022-10-28T11:05:02.687Z,1016.46
2022-10-28T11:10:02.751Z,1016.29
2022-10-28T11:15:02.951Z,1016.32
2022-10-28T11:20:01.905Z,1016.24
2022-10-28T11:25:02.813Z,1016.15
2022-10-28T11:30:02.802Z,1015.99
2022-10-28T11:35:02.614Z,1015.99
2022-10-28T11:40:02.585Z,1015.88
2022-10-28T11:45:02.561Z,1015.81
2022-10-28T11:50:13.068Z,1015.8
2022-10-28T11:55:01.966Z,1015.83
2022-10-28T12:00:01.788Z,1015.77
2022-10-28T12:05:02.694Z,1015.75
2022-10-28T12:10:02.642Z,1015.66
2022-10-28T12:15:02.435Z,1015.57
2022-10-28T12:20:04.325Z,1015.53
2022-10-28T12:25:02.246Z,1015.49
2022-10-28T12:30:02.400Z,1015.51
2022-10-28T12:35:02.271Z,1015.56
2022-10-28T12:40:02.258Z,1015.68
2022-10-28T12:45:02.470Z,1015.67
2022-10-28T12:50:02.414Z,1015.61
2022-10-28T12:55:02.579Z,1015.68
2022-10-28T13:00:02.761Z,1015.77
2022-10-28T13:05:02.626Z,1015.77
2022-10-28T13:10:10.684Z,1015.87
2022-10-28T13:15:02.912Z,1015.82
2022-10-28T13:20:01.840Z,1015.85
2022-10-28T13:25:02.761Z,1015.86
2022-10-28T13:30:02.822Z,1015.98
2022-10-28T13:35:02.921Z,1015.94
2022-10-28T13:40:03.072Z,1015.92
2022-10-28T13:45:02.040Z,1015.99
2022-10-28T13:50:02.842Z,1016.01
2022-10-28T13:55:02.780Z,1016.03
2022-10-28T14:00:02.865Z,1016.02
2022-10-28T14:05:09.546Z,1016.13
2022-10-28T14:10:02.511Z,1016.12
2022-10-28T14:15:02.500Z,1016.22
2022-10-28T14:20:02.316Z,1016.23
2022-10-28T14:25:02.464Z,1016.31
2022-10-28T14:30:02.331Z,1016.43
2022-10-28T14:35:02.244Z,1016.48
2022-10-28T14:40:02.181Z,1016.56
2022-10-28T14:45:02.376Z,1016.58
2022-10-28T14:50:02.437Z,1016.72
2022-10-28T14:55:02.269Z,1016.79
2022-10-28T15:00:02.385Z,1016.81
2022-10-28T15:05:02.684Z,1016.81
2022-10-28T15:15:02.417Z,1016.8
2022-10-28T15:20:02.255Z,1016.88
2022-10-28T15:25:02.049Z,1016.87
2022-10-28T15:30:02.518Z,1016.83
2022-10-28T15:35:02.528Z,1016.81
2022-10-28T15:40:06.337Z,1016.77
2022-10-28T15:45:02.586Z,1016.92
2022-10-28T15:50:02.830Z,1017.12
2022-10-28T15:55:02.819Z,1017.19
2022-10-28T16:00:02.725Z,1017.18
2022-10-28T16:05:02.645Z,1017.24
2022-10-28T16:10:02.717Z,1017.38
2022-10-28T16:15:02.601Z,1017.37
2022-10-28T16:20:17.201Z,1017.67
2022-10-28T16:25:02.761Z,1017.6
2022-10-28T16:30:02.732Z,1017.79
2022-10-28T16:35:03.639Z,1017.61
2022-10-28T16:40:02.564Z,1017.69
2022-10-28T16:45:02.645Z,1017.62
2022-10-28T16:50:02.445Z,1017.71
2022-10-28T16:55:02.234Z,1017.73
2022-10-28T17:00:02.231Z,1017.64
2022-10-28T17:05:02.001Z,1017.72
2022-10-28T17:10:01.994Z,1017.92
2022-10-28T17:15:01.841Z,1017.9
2022-10-28T17:20:02.846Z,1017.99
2022-10-28T17:25:02.665Z,1018.0
2022-10-28T17:30:02.610Z,1018.13
2022-10-28T17:35:02.631Z,1018.17
2022-10-28T17:40:02.888Z,1018.11
2022-10-28T17:45:02.710Z,1018.12
2022-10-28T17:50:02.589Z,1018.29
2022-10-28T17:55:02.434Z,1018.33
2022-10-28T18:00:02.346Z,1018.38
2022-10-28T18:05:02.309Z,1018.41
2022-10-28T18:10:02.255Z,1018.45
2022-10-28T18:15:02.195Z,1018.44
2022-10-28T18:20:02.084Z,1018.45
2022-10-28T18:25:02.831Z,1018.44
2022-10-28T18:30:02.883Z,1018.62
2022-10-28T18:35:02.738Z,1018.75
2022-10-28T18:40:02.778Z,1018.8
2022-10-28T18:45:03.020Z,1018.87
2022-10-28T18:50:01.879Z,1018.94
2022-10-28T18:55:02.905Z,1018.94
2022-10-28T19:00:19.617Z,1018.83
2022-10-28T19:05:02.989Z,1018.87
2022-10-28T19:10:02.435Z,1018.97
2022-10-28T19:15:02.443Z,1019.03
2022-10-28T19:20:03.191Z,1019.15
2022-10-28T19:25:02.111Z,1019.13
2022-10-28T19:30:02.486Z,1019.14
2022-10-28T19:35:02.314Z,1019.08
2022-10-28T19:40:02.333Z,1019.1
2022-10-28T19:45:02.258Z,1019.11
2022-10-28T19:50:02.103Z,1019.21
2022-10-28T19:55:02.029Z,1019.19
2022-10-28T20:00:01.875Z,1019.28
2022-10-28T20:05:02.718Z,1019.38
2022-10-28T20:10:02.673Z,1019.45
2022-10-28T20:15:02.489Z,1019.49
2022-10-28T20:20:02.633Z,1019.55
2022-10-28T20:25:02.402Z,1019.58
2022-10-28T20:30:02.377Z,1019.55
2022-10-28T20:35:21.967Z,1019.55
2022-10-28T20:40:07.740Z,1019.84
2022-10-28T20:45:08.624Z,1019.78
2022-10-28T20:50:08.704Z,1019.99
2022-10-28T20:55:08.434Z,1019.82
2022-10-28T21:00:08.128Z,1020.05
2022-10-28T21:05:07.814Z,1020.08
2022-10-28T21:10:08.542Z,1020.17
2022-10-28T21:15:08.268Z,1020.12
2022-10-28T21:20:07.986Z,1020.25
2022-10-28T21:25:07.742Z,1020.27
2022-10-28T21:30:08.557Z,1020.38
2022-10-28T21:35:08.351Z,1020.4
2022-10-28T21:40:08.028Z,1020.35
2022-10-28T21:45:07.761Z,1020.34
2022-10-28T21:50:08.472Z,1020.41
2022-10-28T21:55:20.099Z,1020.35
2022-10-28T22:00:08.534Z,1020.53
2022-10-28T22:05:08.250Z,1020.46
2022-10-28T22:10:07.928Z,1020.57
2022-10-28T22:15:08.645Z,1020.52
2022-10-28T22:20:08.383Z,1020.52
2022-10-28T22:25:10.468Z,1020.45
2022-10-28T22:30:08.482Z,1020.51
2022-10-28T22:35:08.167Z,1020.51
2022-10-28T22:40:07.853Z,1020.5
2022-10-28T22:45:08.536Z,1020.59
2022-10-28T22:50:08.218Z,1020.57
2022-10-28T22:55:07.903Z,1020.54
2022-10-28T23:01:02.572Z,1020.55
2022-10-28T23:05:08.318Z,1020.6
2022-10-28T23:10:08.120Z,1020.79
2022-10-28T23:15:07.841Z,1020.71
2022-10-28T23:20:08.568Z,1020.71
2022-10-28T23:25:08.324Z,1020.84
2022-10-28T23:30:08.057Z,1020.9
2022-10-28T23:35:07.785Z,1020.81
2022-10-28T23:45:08.147Z,1020.77
2022-10-28T23:50:07.814Z,1020.74
2022-10-28T23:55:08.511Z,1020.64
